sensor_id;sensor_type;location;lat;lon;timestamp;pressure;altitude;pressure_sealevel;temperature;humidity
72855;BME280;60991;51.278;22.550;2022-11-11T00:01:21;100378.97;;;8.92;79.43
72855;BME280;60991;51.278;22.550;2022-11-11T00:02:54;100379.78;;;8.80;79.81
72855;BME280;60991;51.278;22.550;2022-11-11T00:04:24;100382.22;;;8.81;79.79
72855;BME280;60991;51.278;22.550;2022-11-11T00:05:59;100391.19;;;8.80;80.11
72855;BME280;60991;51.278;22.550;2022-11-11T00:07:30;100383.66;;;8.84;79.75
72855;BME280;60991;51.278;22.550;2022-11-11T00:09:00;100386.94;;;8.86;79.86
72855;BME280;60991;51.278;22.550;2022-11-11T00:10:30;100392.03;;;8.87;79.76
72855;BME280;60991;51.278;22.550;2022-11-11T00:12:00;100394.06;;;8.85;79.73
72855;BME280;60991;51.278;22.550;2022-11-11T00:13:31;100388.97;;;8.84;79.61
72855;BME280;60991;51.278;22.550;2022-11-11T00:15:02;100393.84;;;8.80;79.73
72855;BME280;60991;51.278;22.550;2022-11-11T00:16:32;100395.25;;;8.76;79.92
72855;BME280;60991;51.278;22.550;2022-11-11T00:18:03;100389.38;;;8.81;79.55
72855;BME280;60991;51.278;22.550;2022-11-11T00:19:34;100394.66;;;8.81;79.34
72855;BME280;60991;51.278;22.550;2022-11-11T00:21:04;100390.38;;;8.80;79.18
72855;BME280;60991;51.278;22.550;2022-11-11T00:22:34;100398.75;;;8.83;79.51
72855;BME280;60991;51.278;22.550;2022-11-11T00:24:12;100395.66;;;8.80;79.28
72855;BME280;60991;51.278;22.550;2022-11-11T00:25:52;100400.75;;;8.75;79.23
72855;BME280;60991;51.278;22.550;2022-11-11T00:27:22;100398.28;;;8.73;79.89
72855;BME280;60991;51.278;22.550;2022-11-11T00:28:52;100397.88;;;8.63;79.77
72855;BME280;60991;51.278;22.550;2022-11-11T00:30:23;100399.72;;;8.62;79.99
72855;BME280;60991;51.278;22.550;2022-11-11T00:31:53;100394.59;;;8.61;80.10
72855;BME280;60991;51.278;22.550;2022-11-11T00:33:23;100396.03;;;8.63;80.01
72855;BME280;60991;51.278;22.550;2022-11-11T00:34:54;100390.31;;;8.60;79.73
72855;BME280;60991;51.278;22.550;2022-11-11T00:36:25;100391.16;;;8.60;79.78
72855;BME280;60991;51.278;22.550;2022-11-11T00:38:05;100395.03;;;8.64;79.83
72855;BME280;60991;51.278;22.550;2022-11-11T00:39:36;100390.34;;;8.66;80.03
72855;BME280;60991;51.278;22.550;2022-11-11T00:41:06;100394.22;;;8.64;79.85
72855;BME280;60991;51.278;22.550;2022-11-11T00:42:36;100390.13;;;8.61;79.83
72855;BME280;60991;51.278;22.550;2022-11-11T00:44:07;100400.91;;;8.53;80.55
72855;BME280;60991;51.278;22.550;2022-11-11T00:45:37;100400.50;;;8.50;80.56
72855;BME280;60991;51.278;22.550;2022-11-11T00:47:07;100397.84;;;8.50;80.34
72855;BME280;60991;51.278;22.550;2022-11-11T00:48:38;100398.63;;;8.44;80.18
72855;BME280;60991;51.278;22.550;2022-11-11T00:50:21;100394.31;;;8.36;80.90
72855;BME280;60991;51.278;22.550;2022-11-11T00:51:51;100386.16;;;8.31;80.92
72855;BME280;60991;51.278;22.550;2022-11-11T00:53:32;100392.66;;;8.28;80.98
72855;BME280;60991;51.278;22.550;2022-11-11T00:55:02;100391.63;;;8.29;80.89
72855;BME280;60991;51.278;22.550;2022-11-11T00:56:33;100396.31;;;8.27;80.95
72855;BME280;60991;51.278;22.550;2022-11-11T00:58:04;100398.72;;;8.22;81.05
72855;BME280;60991;51.278;22.550;2022-11-11T00:59:34;100394.63;;;8.20;80.97
72855;BME280;60991;51.278;22.550;2022-11-11T01:01:04;100395.47;;;8.27;81.00
72855;BME280;60991;51.278;22.550;2022-11-11T01:02:34;100390.63;;;8.30;80.51
72855;BME280;60991;51.278;22.550;2022-11-11T01:04:05;100397.94;;;8.28;80.47
72855;BME280;60991;51.278;22.550;2022-11-11T01:05:38;100396.50;;;8.26;80.71
72855;BME280;60991;51.278;22.550;2022-11-11T01:07:08;100393.66;;;8.27;80.42
72855;BME280;60991;51.278;22.550;2022-11-11T01:08:39;100397.94;;;8.28;80.78
72855;BME280;60991;51.278;22.550;2022-11-11T01:10:09;100397.75;;;8.30;80.82
72855;BME280;60991;51.278;22.550;2022-11-11T01:11:40;100390.59;;;8.24;81.03
72855;BME280;60991;51.278;22.550;2022-11-11T01:13:19;100391.78;;;8.15;81.45
72855;BME280;60991;51.278;22.550;2022-11-11T01:14:50;100396.88;;;8.23;80.88
72855;BME280;60991;51.278;22.550;2022-11-11T01:16:23;100392.22;;;8.25;80.30
72855;BME280;60991;51.278;22.550;2022-11-11T01:17:53;100384.91;;;8.27;80.34
72855;BME280;60991;51.278;22.550;2022-11-11T01:19:24;100395.44;;;8.20;80.19
72855;BME280;60991;51.278;22.550;2022-11-11T01:21:12;100394.81;;;8.18;80.92
72855;BME280;60991;51.278;22.550;2022-11-11T01:22:42;100391.00;;;8.27;80.54
72855;BME280;60991;51.278;22.550;2022-11-11T01:24:13;100388.75;;;8.24;80.37
72855;BME280;60991;51.278;22.550;2022-11-11T01:25:43;100394.03;;;8.24;80.25
72855;BME280;60991;51.278;22.550;2022-11-11T01:27:13;100400.59;;;8.28;80.24
72855;BME280;60991;51.278;22.550;2022-11-11T01:28:44;100403.84;;;8.30;80.46
72855;BME280;60991;51.278;22.550;2022-11-11T01:30:17;100411.78;;;8.30;80.41
72855;BME280;60991;51.278;22.550;2022-11-11T01:31:47;100410.63;;;8.33;80.05
72855;BME280;60991;51.278;22.550;2022-11-11T01:33:18;100407.69;;;8.28;80.13
72855;BME280;60991;51.278;22.550;2022-11-11T01:34:48;100405.47;;;8.31;79.76
72855;BME280;60991;51.278;22.550;2022-11-11T01:36:23;100396.09;;;8.29;80.08
72855;BME280;60991;51.278;22.550;2022-11-11T01:37:55;100400.97;;;8.25;79.99
72855;BME280;60991;51.278;22.550;2022-11-11T01:39:26;100399.28;;;8.18;80.63
72855;BME280;60991;51.278;22.550;2022-11-11T01:40:56;100400.13;;;8.18;80.35
72855;BME280;60991;51.278;22.550;2022-11-11T01:42:26;100407.47;;;8.16;80.36
72855;BME280;60991;51.278;22.550;2022-11-11T01:43:57;100404.53;;;8.05;81.04
72855;BME280;60991;51.278;22.550;2022-11-11T01:47:18;100402.56;;;8.13;80.68
72855;BME280;60991;51.278;22.550;2022-11-11T01:48:54;100397.47;;;8.12;80.10
72855;BME280;60991;51.278;22.550;2022-11-11T01:50:26;100397.88;;;8.15;80.16
72855;BME280;60991;51.278;22.550;2022-11-11T01:52:04;100404.19;;;8.14;79.96
72855;BME280;60991;51.278;22.550;2022-11-11T01:53:36;100406.84;;;8.14;80.31
72855;BME280;60991;51.278;22.550;2022-11-11T01:55:09;100407.47;;;8.16;79.94
72855;BME280;60991;51.278;22.550;2022-11-11T01:56:43;100407.22;;;8.18;80.13
72855;BME280;60991;51.278;22.550;2022-11-11T01:58:17;100412.94;;;8.21;79.70
72855;BME280;60991;51.278;22.550;2022-11-11T01:59:52;100409.88;;;8.18;79.64
72855;BME280;60991;51.278;22.550;2022-11-11T02:01:23;100406.66;;;8.22;79.79
72855;BME280;60991;51.278;22.550;2022-11-11T02:03:01;100408.91;;;8.25;79.90
72855;BME280;60991;51.278;22.550;2022-11-11T02:04:34;100411.94;;;8.22;79.42
72855;BME280;60991;51.278;22.550;2022-11-11T02:06:07;100411.56;;;8.25;79.89
72855;BME280;60991;51.278;22.550;2022-11-11T02:07:38;100407.91;;;8.26;80.31
72855;BME280;60991;51.278;22.550;2022-11-11T02:09:10;100414.19;;;8.25;79.49
72855;BME280;60991;51.278;22.550;2022-11-11T02:10:43;100414.38;;;8.24;79.66
72855;BME280;60991;51.278;22.550;2022-11-11T02:12:15;100410.72;;;8.25;79.93
72855;BME280;60991;51.278;22.550;2022-11-11T02:13:48;100417.28;;;8.29;80.07
72855;BME280;60991;51.278;22.550;2022-11-11T02:15:19;100419.13;;;8.35;79.79
72855;BME280;60991;51.278;22.550;2022-11-11T02:16:50;100415.91;;;8.40;79.66
72855;BME280;60991;51.278;22.550;2022-11-11T02:18:20;100425.25;;;8.36;79.44
72855;BME280;60991;51.278;22.550;2022-11-11T02:20:00;100426.88;;;8.37;79.72
72855;BME280;60991;51.278;22.550;2022-11-11T02:21:46;100425.88;;;8.38;79.67
72855;BME280;60991;51.278;22.550;2022-11-11T02:23:45;100424.22;;;8.37;80.02
72855;BME280;60991;51.278;22.550;2022-11-11T02:25:20;100426.28;;;8.35;79.99
72855;BME280;60991;51.278;22.550;2022-11-11T02:26:53;100426.69;;;8.38;80.40
72855;BME280;60991;51.278;22.550;2022-11-11T02:28:26;100422.03;;;8.40;80.04
72855;BME280;60991;51.278;22.550;2022-11-11T02:29:59;100424.28;;;8.43;80.23
72855;BME280;60991;51.278;22.550;2022-11-11T02:31:31;100420.78;;;8.36;80.06
72855;BME280;60991;51.278;22.550;2022-11-11T02:33:01;100418.56;;;8.40;80.05
72855;BME280;60991;51.278;22.550;2022-11-11T02:34:32;100414.50;;;8.44;80.17
72855;BME280;60991;51.278;22.550;2022-11-11T02:36:03;100428.34;;;8.46;79.93
72855;BME280;60991;51.278;22.550;2022-11-11T02:37:33;100421.63;;;8.43;80.06
72855;BME280;60991;51.278;22.550;2022-11-11T02:39:04;100427.34;;;8.47;80.11
72855;BME280;60991;51.278;22.550;2022-11-11T02:40:37;100417.81;;;8.52;80.01
72855;BME280;60991;51.278;22.550;2022-11-11T02:42:09;100420.84;;;8.56;79.53
72855;BME280;60991;51.278;22.550;2022-11-11T02:45:18;100429.59;;;8.50;80.00
72855;BME280;60991;51.278;22.550;2022-11-11T02:46:49;100417.81;;;8.52;79.63
72855;BME280;60991;51.278;22.550;2022-11-11T02:48:19;100414.53;;;8.50;79.89
72855;BME280;60991;51.278;22.550;2022-11-11T02:49:49;100421.28;;;8.53;80.09
72855;BME280;60991;51.278;22.550;2022-11-11T02:51:20;100417.19;;;8.50;79.96
72855;BME280;60991;51.278;22.550;2022-11-11T02:52:50;100414.13;;;8.47;80.37
72855;BME280;60991;51.278;22.550;2022-11-11T02:54:20;100415.91;;;8.40;80.69
72855;BME280;60991;51.278;22.550;2022-11-11T02:55:50;100423.44;;;8.43;80.58
72855;BME280;60991;51.278;22.550;2022-11-11T02:57:21;100415.47;;;8.36;80.53
72855;BME280;60991;51.278;22.550;2022-11-11T02:58:51;100414.28;;;8.32;81.05
72855;BME280;60991;51.278;22.550;2022-11-11T03:00:21;100413.84;;;8.35;80.80
72855;BME280;60991;51.278;22.550;2022-11-11T03:01:52;100404.91;;;8.36;80.78
72855;BME280;60991;51.278;22.550;2022-11-11T03:03:22;100413.41;;;8.31;81.25
72855;BME280;60991;51.278;22.550;2022-11-11T03:04:56;100415.44;;;8.29;80.83
72855;BME280;60991;51.278;22.550;2022-11-11T03:06:27;100413.38;;;8.25;80.67
72855;BME280;60991;51.278;22.550;2022-11-11T03:07:57;100417.47;;;8.27;80.49
72855;BME280;60991;51.278;22.550;2022-11-11T03:09:27;100411.78;;;8.30;81.07
72855;BME280;60991;51.278;22.550;2022-11-11T03:10:57;100413.56;;;8.23;81.08
72855;BME280;60991;51.278;22.550;2022-11-11T03:12:27;100417.28;;;8.29;80.82
72855;BME280;60991;51.278;22.550;2022-11-11T03:13:59;100413.53;;;8.17;81.23
72855;BME280;60991;51.278;22.550;2022-11-11T03:15:29;100411.13;;;8.15;80.92
72855;BME280;60991;51.278;22.550;2022-11-11T03:16:59;100414.97;;;8.19;81.15
72855;BME280;60991;51.278;22.550;2022-11-11T03:18:30;100415.41;;;8.23;80.76
72855;BME280;60991;51.278;22.550;2022-11-11T03:20:00;100415.41;;;8.23;81.14
72855;BME280;60991;51.278;22.550;2022-11-11T03:21:30;100413.41;;;8.31;80.39
72855;BME280;60991;51.278;22.550;2022-11-11T03:23:05;100419.72;;;8.30;80.33
72855;BME280;60991;51.278;22.550;2022-11-11T03:24:35;100426.19;;;8.21;81.14
72855;BME280;60991;51.278;22.550;2022-11-11T03:26:05;100425.59;;;8.26;80.92
72855;BME280;60991;51.278;22.550;2022-11-11T03:27:37;100426.81;;;8.23;80.77
72855;BME280;60991;51.278;22.550;2022-11-11T03:29:07;100423.50;;;8.15;81.20
72855;BME280;60991;51.278;22.550;2022-11-11T03:30:40;100429.19;;;8.12;81.39
72855;BME280;60991;51.278;22.550;2022-11-11T03:32:10;100429.97;;;8.06;80.84
72855;BME280;60991;51.278;22.550;2022-11-11T03:33:41;100424.47;;;8.07;81.23
72855;BME280;60991;51.278;22.550;2022-11-11T03:35:11;100430.78;;;8.06;81.62
72855;BME280;60991;51.278;22.550;2022-11-11T03:36:41;100438.56;;;8.14;80.61
72855;BME280;60991;51.278;22.550;2022-11-11T03:38:12;100435.72;;;8.16;81.20
72855;BME280;60991;51.278;22.550;2022-11-11T03:39:42;100435.72;;;8.16;80.72
72855;BME280;60991;51.278;22.550;2022-11-11T03:41:13;100441.66;;;8.24;80.64
72855;BME280;60991;51.278;22.550;2022-11-11T03:42:43;100433.50;;;8.19;80.19
72855;BME280;60991;51.278;22.550;2022-11-11T03:44:13;100437.19;;;8.25;80.52
72855;BME280;60991;51.278;22.550;2022-11-11T03:45:44;100435.59;;;8.30;79.78
72855;BME280;60991;51.278;22.550;2022-11-11T03:47:15;100438.19;;;8.24;80.36
72855;BME280;60991;51.278;22.550;2022-11-11T03:48:47;100432.72;;;8.25;80.48
72855;BME280;60991;51.278;22.550;2022-11-11T03:50:17;100440.84;;;8.24;80.53
72855;BME280;60991;51.278;22.550;2022-11-11T03:51:48;100438.81;;;8.26;79.97
72855;BME280;60991;51.278;22.550;2022-11-11T03:53:19;100452.94;;;8.33;79.79
72855;BME280;60991;51.278;22.550;2022-11-11T03:54:49;100440.25;;;8.28;79.89
72855;BME280;60991;51.278;22.550;2022-11-11T03:56:20;100446.91;;;8.18;80.59
72855;BME280;60991;51.278;22.550;2022-11-11T03:57:50;100445.75;;;8.27;79.83
72855;BME280;60991;51.278;22.550;2022-11-11T03:59:21;100443.38;;;8.32;80.37
72855;BME280;60991;51.278;22.550;2022-11-11T04:00:51;100442.09;;;8.28;80.07
72855;BME280;60991;51.278;22.550;2022-11-11T04:02:21;100444.50;;;8.23;80.45
72855;BME280;60991;51.278;22.550;2022-11-11T04:03:51;100444.34;;;8.31;80.06
72855;BME280;60991;51.278;22.550;2022-11-11T04:05:21;100443.72;;;8.29;80.33
72855;BME280;60991;51.278;22.550;2022-11-11T04:06:52;100448.97;;;8.22;80.63
72855;BME280;60991;51.278;22.550;2022-11-11T04:08:22;100446.00;;;8.32;79.66
72855;BME280;60991;51.278;22.550;2022-11-11T04:09:52;100447.34;;;8.21;80.08
72855;BME280;60991;51.278;22.550;2022-11-11T04:11:43;100444.94;;;8.26;80.30
72855;BME280;60991;51.278;22.550;2022-11-11T04:13:14;100447.00;;;8.31;79.71
72855;BME280;60991;51.278;22.550;2022-11-11T04:14:48;100447.13;;;8.23;80.01
72855;BME280;60991;51.278;22.550;2022-11-11T04:16:18;100451.22;;;8.25;80.21
72855;BME280;60991;51.278;22.550;2022-11-11T04:17:48;100455.50;;;8.26;80.10
72855;BME280;60991;51.278;22.550;2022-11-11T04:19:18;100457.47;;;8.18;79.94
72855;BME280;60991;51.278;22.550;2022-11-11T04:20:49;100446.31;;;8.16;80.04
72855;BME280;60991;51.278;22.550;2022-11-11T04:22:19;100453.00;;;8.12;80.00
72855;BME280;60991;51.278;22.550;2022-11-11T04:23:49;100458.72;;;8.15;80.36
72855;BME280;60991;51.278;22.550;2022-11-11T04:25:19;100452.19;;;8.18;80.25
72855;BME280;60991;51.278;22.550;2022-11-11T04:26:50;100447.91;;;8.17;79.44
72855;BME280;60991;51.278;22.550;2022-11-11T04:28:20;100437.97;;;8.19;79.36
72855;BME280;60991;51.278;22.550;2022-11-11T04:29:50;100448.13;;;8.15;79.85
72855;BME280;60991;51.278;22.550;2022-11-11T04:31:20;100450.81;;;8.22;80.02
72855;BME280;60991;51.278;22.550;2022-11-11T04:32:51;100446.94;;;8.24;79.81
72855;BME280;60991;51.278;22.550;2022-11-11T04:34:21;100444.69;;;8.21;79.86
72855;BME280;60991;51.278;22.550;2022-11-11T04:35:51;100451.22;;;8.25;79.38
72855;BME280;60991;51.278;22.550;2022-11-11T04:37:22;100448.34;;;8.20;79.47
72855;BME280;60991;51.278;22.550;2022-11-11T04:38:53;100438.13;;;8.11;80.26
72855;BME280;60991;51.278;22.550;2022-11-11T04:40:23;100445.44;;;8.09;79.57
72855;BME280;60991;51.278;22.550;2022-11-11T04:41:53;100446.06;;;8.11;79.71
72855;BME280;60991;51.278;22.550;2022-11-11T04:43:24;100437.03;;;7.98;80.55
72855;BME280;60991;51.278;22.550;2022-11-11T04:44:54;100434.63;;;7.97;80.15
72855;BME280;60991;51.278;22.550;2022-11-11T04:46:24;100432.16;;;7.95;80.07
72855;BME280;60991;51.278;22.550;2022-11-11T04:48:06;100441.13;;;8.01;79.87
72855;BME280;60991;51.278;22.550;2022-11-11T04:49:37;100431.16;;;8.03;79.63
72855;BME280;60991;51.278;22.550;2022-11-11T04:51:07;100446.03;;;8.04;79.91
72855;BME280;60991;51.278;22.550;2022-11-11T04:52:37;100443.63;;;8.09;79.96
72855;BME280;60991;51.278;22.550;2022-11-11T04:54:07;100436.88;;;8.07;79.55
72855;BME280;60991;51.278;22.550;2022-11-11T04:55:39;100444.38;;;8.03;80.08
72855;BME280;60991;51.278;22.550;2022-11-11T04:57:09;100438.94;;;8.11;79.16
72855;BME280;60991;51.278;22.550;2022-11-11T04:58:39;100438.09;;;8.04;79.78
72855;BME280;60991;51.278;22.550;2022-11-11T05:00:15;100433.81;;;8.03;79.83
72855;BME280;60991;51.278;22.550;2022-11-11T05:01:46;100429.34;;;8.04;79.67
72855;BME280;60991;51.278;22.550;2022-11-11T05:03:18;100434.19;;;8.00;79.43
72855;BME280;60991;51.278;22.550;2022-11-11T05:04:48;100444.31;;;7.90;79.82
72855;BME280;60991;51.278;22.550;2022-11-11T05:06:18;100445.56;;;7.94;79.77
72855;BME280;60991;51.278;22.550;2022-11-11T05:07:49;100445.84;;;8.06;79.82
72855;BME280;60991;51.278;22.550;2022-11-11T05:09:19;100456.22;;;8.07;80.09
72855;BME280;60991;51.278;22.550;2022-11-11T05:10:49;100457.66;;;8.10;79.96
72855;BME280;60991;51.278;22.550;2022-11-11T05:12:19;100460.75;;;8.13;79.19
72855;BME280;60991;51.278;22.550;2022-11-11T05:13:51;100465.22;;;8.13;79.78
72855;BME280;60991;51.278;22.550;2022-11-11T05:15:22;100471.50;;;8.12;79.59
72855;BME280;60991;51.278;22.550;2022-11-11T05:16:54;100477.63;;;8.12;79.16
72855;BME280;60991;51.278;22.550;2022-11-11T05:18:25;100485.13;;;8.09;79.48
72855;BME280;60991;51.278;22.550;2022-11-11T05:19:55;100486.44;;;7.98;80.03
72855;BME280;60991;51.278;22.550;2022-11-11T05:21:27;100498.56;;;7.86;80.06
72855;BME280;60991;51.278;22.550;2022-11-11T05:22:58;100498.63;;;7.92;79.66
72855;BME280;60991;51.278;22.550;2022-11-11T05:24:29;100500.28;;;7.93;79.59
72855;BME280;60991;51.278;22.550;2022-11-11T05:25:59;100496.00;;;7.92;79.60
72855;BME280;60991;51.278;22.550;2022-11-11T05:27:29;100500.03;;;7.88;79.69
72855;BME280;60991;51.278;22.550;2022-11-11T05:28:59;100499.66;;;7.91;79.59
72855;BME280;60991;51.278;22.550;2022-11-11T05:30:30;100496.19;;;7.91;80.38
72855;BME280;60991;51.278;22.550;2022-11-11T05:32:00;100496.38;;;7.89;79.62
72855;BME280;60991;51.278;22.550;2022-11-11T05:33:34;100493.47;;;7.84;79.68
72855;BME280;60991;51.278;22.550;2022-11-11T05:35:05;100490.41;;;7.81;80.83
72855;BME280;60991;51.278;22.550;2022-11-11T05:36:35;100483.72;;;7.85;80.12
72855;BME280;60991;51.278;22.550;2022-11-11T05:38:05;100486.19;;;7.86;80.15
72855;BME280;60991;51.278;22.550;2022-11-11T05:39:36;100482.28;;;7.82;80.26
72855;BME280;60991;51.278;22.550;2022-11-11T05:41:07;100487.03;;;7.65;80.94
72855;BME280;60991;51.278;22.550;2022-11-11T05:42:41;100484.94;;;7.61;80.82
72855;BME280;60991;51.278;22.550;2022-11-11T05:44:11;100491.84;;;7.55;81.14
72855;BME280;60991;51.278;22.550;2022-11-11T05:45:41;100494.53;;;7.62;81.00
72855;BME280;60991;51.278;22.550;2022-11-11T05:47:11;100493.59;;;7.48;81.45
72855;BME280;60991;51.278;22.550;2022-11-11T05:48:42;100494.16;;;7.44;81.75
72855;BME280;60991;51.278;22.550;2022-11-11T05:50:12;100494.41;;;7.49;81.24
72855;BME280;60991;51.278;22.550;2022-11-11T05:51:43;100494.84;;;7.52;81.28
72855;BME280;60991;51.278;22.550;2022-11-11T05:53:14;100502.97;;;7.51;81.39
72855;BME280;60991;51.278;22.550;2022-11-11T05:54:45;100506.06;;;7.54;81.30
72855;BME280;60991;51.278;22.550;2022-11-11T05:56:15;100498.44;;;7.45;81.58
72855;BME280;60991;51.278;22.550;2022-11-11T05:57:48;100500.66;;;7.41;81.73
72855;BME280;60991;51.278;22.550;2022-11-11T05:59:18;100500.44;;;7.43;81.83
72855;BME280;60991;51.278;22.550;2022-11-11T06:00:49;100502.91;;;7.44;81.67
72855;BME280;60991;51.278;22.550;2022-11-11T06:02:19;100500.53;;;7.49;82.06
72855;BME280;60991;51.278;22.550;2022-11-11T06:03:49;100497.75;;;7.36;81.70
72855;BME280;60991;51.278;22.550;2022-11-11T06:05:19;100506.44;;;7.30;82.39
72855;BME280;60991;51.278;22.550;2022-11-11T06:06:49;100501.97;;;7.30;82.41
72855;BME280;60991;51.278;22.550;2022-11-11T06:08:20;100509.59;;;7.40;81.82
72855;BME280;60991;51.278;22.550;2022-11-11T06:09:50;100511.78;;;7.37;81.89
72855;BME280;60991;51.278;22.550;2022-11-11T06:11:20;100507.00;;;7.25;82.15
72855;BME280;60991;51.278;22.550;2022-11-11T06:12:51;100508.22;;;7.23;82.58
72855;BME280;60991;51.278;22.550;2022-11-11T06:14:21;100512.47;;;7.24;82.88
72855;BME280;60991;51.278;22.550;2022-11-11T06:15:51;100509.63;;;7.25;83.33
72855;BME280;60991;51.278;22.550;2022-11-11T06:17:22;100502.28;;;7.21;83.60
72855;BME280;60991;51.278;22.550;2022-11-11T06:18:53;100501.09;;;7.23;83.54
72855;BME280;60991;51.278;22.550;2022-11-11T06:20:23;100501.34;;;7.28;83.63
72855;BME280;60991;51.278;22.550;2022-11-11T06:21:53;100511.41;;;7.40;83.04
72855;BME280;60991;51.278;22.550;2022-11-11T06:23:24;100508.38;;;7.43;82.61
72855;BME280;60991;51.278;22.550;2022-11-11T06:24:55;100509.78;;;7.39;82.51
72855;BME280;60991;51.278;22.550;2022-11-11T06:26:25;100507.38;;;7.44;83.07
72855;BME280;60991;51.278;22.550;2022-11-11T06:27:55;100511.47;;;7.46;83.25
72855;BME280;60991;51.278;22.550;2022-11-11T06:29:26;100516.94;;;7.45;83.23
72855;BME280;60991;51.278;22.550;2022-11-11T06:30:56;100517.75;;;7.45;83.01
72855;BME280;60991;51.278;22.550;2022-11-11T06:32:27;100516.38;;;7.49;83.41
72855;BME280;60991;51.278;22.550;2022-11-11T06:33:57;100515.56;;;7.49;82.97
72855;BME280;60991;51.278;22.550;2022-11-11T06:35:27;100515.28;;;7.44;83.41
72855;BME280;60991;51.278;22.550;2022-11-11T06:36:58;100520.66;;;7.50;83.02
72855;BME280;60991;51.278;22.550;2022-11-11T06:38:28;100521.47;;;7.51;83.12
72855;BME280;60991;51.278;22.550;2022-11-11T06:39:58;100509.00;;;7.45;83.71
72855;BME280;60991;51.278;22.550;2022-11-11T06:41:28;100508.00;;;7.46;84.01
72855;BME280;60991;51.278;22.550;2022-11-11T06:42:59;100502.50;;;7.41;83.78
72855;BME280;60991;51.278;22.550;2022-11-11T06:44:29;100507.78;;;7.41;84.35
72855;BME280;60991;51.278;22.550;2022-11-11T06:46:00;100511.22;;;7.41;84.01
72855;BME280;60991;51.278;22.550;2022-11-11T06:47:30;100506.31;;;7.38;84.64
72855;BME280;60991;51.278;22.550;2022-11-11T06:49:00;100498.84;;;7.42;84.53
72855;BME280;60991;51.278;22.550;2022-11-11T06:50:31;100502.72;;;7.46;84.19
72855;BME280;60991;51.278;22.550;2022-11-11T06:52:02;100507.81;;;7.47;84.13
72855;BME280;60991;51.278;22.550;2022-11-11T06:53:32;100507.44;;;7.50;84.22
72855;BME280;60991;51.278;22.550;2022-11-11T06:55:02;100510.78;;;7.59;83.98
72855;BME280;60991;51.278;22.550;2022-11-11T06:56:32;100507.53;;;7.63;83.74
72855;BME280;60991;51.278;22.550;2022-11-11T06:58:10;100505.25;;;7.82;82.92
72855;BME280;60991;51.278;22.550;2022-11-11T06:59:41;100508.41;;;7.98;82.85
72855;BME280;60991;51.278;22.550;2022-11-11T07:01:11;100512.13;;;8.04;82.63
72855;BME280;60991;51.278;22.550;2022-11-11T07:02:42;100513.09;;;7.96;81.93
72855;BME280;60991;51.278;22.550;2022-11-11T07:04:12;100510.47;;;7.96;82.66
72855;BME280;60991;51.278;22.550;2022-11-11T07:05:43;100514.44;;;7.86;82.43
72855;BME280;60991;51.278;22.550;2022-11-11T07:07:13;100510.88;;;7.72;83.31
72855;BME280;60991;51.278;22.550;2022-11-11T07:08:44;100518.06;;;7.78;83.02
72855;BME280;60991;51.278;22.550;2022-11-11T07:10:14;100517.72;;;7.88;82.99
72855;BME280;60991;51.278;22.550;2022-11-11T07:11:47;100514.94;;;7.96;83.21
72855;BME280;60991;51.278;22.550;2022-11-11T07:13:17;100513.50;;;7.93;83.03
72855;BME280;60991;51.278;22.550;2022-11-11T07:14:47;100522.44;;;7.92;82.97
72855;BME280;60991;51.278;22.550;2022-11-11T07:16:18;100522.28;;;8.00;82.87
72855;BME280;60991;51.278;22.550;2022-11-11T07:17:48;100517.09;;;8.14;82.44
72855;BME280;60991;51.278;22.550;2022-11-11T07:19:18;100517.22;;;8.06;82.75
72855;BME280;60991;51.278;22.550;2022-11-11T07:20:48;100520.50;;;8.08;82.71
72855;BME280;60991;51.278;22.550;2022-11-11T07:22:19;100514.91;;;8.24;82.41
72855;BME280;60991;51.278;22.550;2022-11-11T07:23:49;100516.97;;;8.28;81.51
72855;BME280;60991;51.278;22.550;2022-11-11T07:25:19;100514.59;;;8.33;81.46
72855;BME280;60991;51.278;22.550;2022-11-11T07:26:49;100514.72;;;8.25;81.51
72855;BME280;60991;51.278;22.550;2022-11-11T07:28:19;100516.53;;;8.25;81.56
72855;BME280;60991;51.278;22.550;2022-11-11T07:29:50;100513.66;;;8.20;82.39
72855;BME280;60991;51.278;22.550;2022-11-11T07:31:20;100507.84;;;8.31;81.72
72855;BME280;60991;51.278;22.550;2022-11-11T07:32:51;100506.59;;;8.27;81.72
72855;BME280;60991;51.278;22.550;2022-11-11T07:34:22;100508.66;;;8.31;81.81
72855;BME280;60991;51.278;22.550;2022-11-11T07:35:52;100508.59;;;8.25;81.83
72855;BME280;60991;51.278;22.550;2022-11-11T07:37:22;100502.44;;;8.18;82.68
72855;BME280;60991;51.278;22.550;2022-11-11T07:38:52;100498.50;;;8.35;81.78
72855;BME280;60991;51.278;22.550;2022-11-11T07:40:22;100493.44;;;8.33;81.95
72855;BME280;60991;51.278;22.550;2022-11-11T07:41:53;100492.97;;;8.30;81.82
72855;BME280;60991;51.278;22.550;2022-11-11T07:43:23;100493.75;;;8.24;82.11
72855;BME280;60991;51.278;22.550;2022-11-11T07:44:53;100490.31;;;8.30;82.14
72855;BME280;60991;51.278;22.550;2022-11-11T07:46:23;100481.97;;;8.26;82.59
72855;BME280;60991;51.278;22.550;2022-11-11T07:47:53;100485.41;;;8.27;82.28
72855;BME280;60991;51.278;22.550;2022-11-11T07:49:24;100481.22;;;8.32;82.24
72855;BME280;60991;51.278;22.550;2022-11-11T07:50:54;100487.00;;;8.21;82.57
72855;BME280;60991;51.278;22.550;2022-11-11T07:52:24;100488.06;;;8.27;82.48
72855;BME280;60991;51.278;22.550;2022-11-11T07:53:54;100487.91;;;8.35;82.54
72855;BME280;60991;51.278;22.550;2022-11-11T07:55:24;100488.97;;;8.41;82.67
72855;BME280;60991;51.278;22.550;2022-11-11T07:56:55;100489.25;;;8.59;82.08
72855;BME280;60991;51.278;22.550;2022-11-11T07:58:25;100493.09;;;8.50;82.54
72855;BME280;60991;51.278;22.550;2022-11-11T07:59:55;100494.69;;;8.44;82.49
72855;BME280;60991;51.278;22.550;2022-11-11T08:01:25;100491.19;;;8.37;82.32